Time;durP1;ratioP1;P1;durP2;ratioP2;P2;SDS_P1;SDS_P2;PMS_P1;PMS_P2;Temp;Humidity;BMP_temperature;BMP_pressure;BME280_temperature;BME280_humidity;BME280_pressure;Samples;Min_cycle;Max_cycle;Signal;HPM_P1;HPM_P2
2022/12/24 00:01:54;;;;;;;;;10.00;5.00;;;;;13.03;74.17;100961.50;4975827;28;47006;-53
2022/12/24 00:04:20;;;;;;;;;12.67;4.00;;;;;12.96;74.22;100950.59;4976194;28;46261;-60
2022/12/24 00:06:46;;;;;;;;;17.67;4.00;;;;;12.70;74.00;100926.56;4975941;28;45244;-60
2022/12/24 00:09:11;;;;;;;;;8.33;4.33;;;;;13.02;73.98;100965.13;4976107;28;45552;-49
2022/12/24 00:11:36;;;;;;;;;8.33;6.33;;;;;13.01;74.51;100968.81;4975799;28;45976;-49
2022/12/24 00:14:02;;;;;;;;;14.67;5.00;;;;;13.01;74.29;100963.47;4975881;28;45263;-49
2022/12/24 00:16:27;;;;;;;;;9.33;5.00;;;;;13.00;74.65;100962.63;4976072;28;45460;-48
2022/12/24 00:18:53;;;;;;;;;3.67;3.67;;;;;13.01;74.27;100974.16;4976059;28;45211;-45
2022/12/24 00:21:18;;;;;;;;;9.67;5.00;;;;;13.01;74.18;100960.81;4975798;28;45318;-59
2022/12/24 00:23:43;;;;;;;;;9.67;4.67;;;;;13.00;74.52;100962.63;4975847;28;45406;-60
2022/12/24 00:26:09;;;;;;;;;5.33;3.00;;;;;13.00;73.92;100970.66;4975877;28;45587;-48
2022/12/24 00:28:34;;;;;;;;;7.00;5.00;;;;;13.00;74.50;100967.97;4976130;28;45383;-50
2022/12/24 00:31:06;;;;;;;;;11.00;7.00;;;;;12.97;74.38;100962.94;4975665;28;46279;-61
2022/12/24 00:33:31;;;;;;;;;4.00;2.00;;;;;12.97;74.29;100968.28;4975547;28;45353;-47
2022/12/24 00:35:57;;;;;;;;;8.67;6.00;;;;;12.95;73.90;100972.97;4975651;28;45223;-48
2022/12/24 00:38:22;;;;;;;;;11.33;6.33;;;;;12.91;74.63;100969.75;4975968;28;45439;-47
2022/12/24 00:40:47;;;;;;;;;5.33;1.00;;;;;12.90;74.33;100964.59;4975480;28;47313;-47
2022/12/24 00:43:13;;;;;;;;;9.00;5.33;;;;;12.89;74.46;100973.56;4975688;28;45251;-46
2022/12/24 00:45:38;;;;;;;;;10.00;5.33;;;;;12.88;74.29;100991.41;4975580;28;45371;-46
2022/12/24 00:48:04;;;;;;;;;8.67;4.00;;;;;12.82;74.56;100985.88;4975786;28;45453;-46
2022/12/24 00:50:29;;;;;;;;;4.33;2.67;;;;;12.86;74.57;101008.63;4975764;28;47067;-48
2022/12/24 00:52:54;;;;;;;;;7.67;5.33;;;;;12.84;74.87;101005.25;4975509;28;45347;-46
2022/12/24 00:55:19;;;;;;;;;7.33;4.00;;;;;12.84;74.86;101008.75;4975730;28;45559;-48
2022/12/24 00:57:45;;;;;;;;;9.33;5.00;;;;;12.82;75.01;100993.91;4975646;28;45333;-54
2022/12/24 01:00:10;;;;;;;;;12.00;4.00;;;;;12.81;74.48;100989.53;4975198;28;45972;-53
2022/12/24 01:02:36;;;;;;;;;6.67;6.00;;;;;12.83;74.81;101014.25;4975124;28;45365;-58
2022/12/24 01:05:10;;;;;;;;;10.33;7.00;;;;;12.77;74.80;101020.19;4974138;28;45395;-54
2022/12/24 01:07:43;;;;;;;;;10.67;3.67;;;;;12.85;74.83;101026.47;4975404;28;45432;-53
2022/12/24 01:10:11;;;;;;;;;13.00;7.00;;;;;12.83;74.60;101024.94;4974566;28;45998;-47
2022/12/24 01:12:37;;;;;;;;;12.00;4.00;;;;;12.83;74.73;101024.94;4975179;28;45307;-53
2022/12/24 01:15:04;;;;;;;;;7.33;3.33;;;;;12.83;74.65;101012.41;4975081;28;45485;-57
2022/12/24 01:17:33;;;;;;;;;9.67;4.33;;;;;12.79;74.94;101008.38;4975331;28;45502;-46
2022/12/24 01:19:59;;;;;;;;;9.33;5.00;;;;;12.68;74.94;101000.59;4975191;28;45239;-59
2022/12/24 01:22:25;;;;;;;;;10.00;3.00;;;;;12.68;75.07;100990.78;4975061;28;45340;-50
2022/12/24 01:24:50;;;;;;;;;12.67;7.00;;;;;12.77;75.43;100998.84;4975431;28;45370;-59
2022/12/24 01:27:16;;;;;;;;;10.33;3.00;;;;;12.74;75.14;100992.81;4975680;28;45505;-62
2022/12/24 01:29:41;;;;;;;;;10.33;4.33;;;;;12.72;75.43;101001.97;4975497;28;45439;-61
2022/12/24 01:32:06;;;;;;;;;9.33;5.33;;;;;12.69;75.34;101023.66;4975289;28;45472;-59
2022/12/24 01:34:32;;;;;;;;;6.00;3.67;;;;;12.68;75.69;101016.63;4976788;28;45400;-61
2022/12/24 01:36:57;;;;;;;;;8.00;6.00;;;;;12.65;75.76;101027.63;4975376;28;45448;-58
2022/12/24 01:39:22;;;;;;;;;11.67;5.33;;;;;12.69;75.56;101020.97;4975138;28;45291;-61
2022/12/24 01:44:35;;;;;;;;;8.67;3.33;;;;;12.70;75.95;101018.16;4975073;28;45395;-52
2022/12/24 01:47:13;;;;;;;;;7.33;2.00;;;;;12.68;75.92;101022.81;4975110;28;45528;-62
2022/12/24 01:49:43;;;;;;;;;12.00;6.00;;;;;12.60;75.96;101014.75;4974641;28;45316;-61
2022/12/24 01:52:18;;;;;;;;;8.00;4.00;;;;;12.63;75.55;101026.91;4974782;28;45354;-60
2022/12/24 01:54:49;;;;;;;;;7.00;7.00;;;;;12.67;75.76;101028.28;4975214;28;45280;-49
2022/12/24 01:57:28;;;;;;;;;4.00;4.00;;;;;12.67;75.96;101037.13;4975056;28;45312;-46
2022/12/24 01:59:59;;;;;;;;;7.00;3.00;;;;;12.64;75.81;101040.13;4974471;28;45387;-50
2022/12/24 02:02:26;;;;;;;;;5.00;3.67;;;;;12.68;76.06;101044.19;4974661;28;45390;-55
2022/12/24 02:05:05;;;;;;;;;8.67;4.00;;;;;12.65;76.08;101041.81;4974968;28;45333;-61
2022/12/24 02:07:30;;;;;;;;;10.67;5.67;;;;;12.67;76.57;101037.13;4975154;28;45446;-62
2022/12/24 02:09:58;;;;;;;;;7.00;6.00;;;;;12.67;75.89;101042.47;4974770;28;46082;-61
2022/12/24 02:12:25;;;;;;;;;9.33;4.00;;;;;12.65;76.21;101049.81;4974834;28;45387;-59
2022/12/24 02:14:52;;;;;;;;;9.00;5.33;;;;;12.68;76.13;101053.97;4973650;28;45474;-61
2022/12/24 02:17:50;;;;;;;;;13.33;7.33;;;;;12.66;76.19;101051.47;4974725;28;45464;-57
2022/12/24 02:20:34;;;;;;;;;12.00;6.67;;;;;12.66;76.21;101048.81;4974378;28;46299;-49
2022/12/24 02:23:19;;;;;;;;;11.33;7.67;;;;;12.67;76.36;101052.31;4973269;28;45368;-62
2022/12/24 02:25:57;;;;;;;;;9.33;4.00;;;;;12.65;76.31;101049.81;4974667;28;45356;-59
2022/12/24 02:28:46;;;;;;;;;11.67;5.00;;;;;12.64;76.02;101053.47;4974602;28;45348;-60
2022/12/24 02:31:22;;;;;;;;;10.00;5.33;;;;;12.56;76.42;101045.41;4975494;28;45524;-48
2022/12/24 02:34:08;;;;;;;;;6.67;3.33;;;;;12.60;76.33;101059.25;4974343;28;45351;-59
2022/12/24 02:36:45;;;;;;;;;4.00;3.00;;;;;12.57;76.74;101052.41;4974374;28;45271;-49
2022/12/24 02:39:19;;;;;;;;;4.33;3.33;;;;;12.59;76.63;101044.22;4974510;28;45339;-54
2022/12/24 02:42:05;;;;;;;;;7.67;3.67;;;;;12.59;76.70;101044.22;4975581;28;45578;-58
2022/12/24 02:44:39;;;;;;;;;8.33;4.33;;;;;12.58;76.83;101029.22;4974016;28;45354;-62
2022/12/24 02:47:07;;;;;;;;;8.00;7.00;;;;;12.59;76.96;101033.56;4974235;28;45325;-59
2022/12/24 02:49:34;;;;;;;;;14.00;6.00;;;;;12.56;76.58;101026.72;4974357;28;45436;-61
2022/12/24 02:51:59;;;;;;;;;7.33;5.33;;;;;12.57;77.06;101039.06;4973899;28;47208;-62
2022/12/24 02:54:25;;;;;;;;;10.00;3.67;;;;;12.58;77.05;101056.75;4974252;28;45297;-59
2022/12/24 02:57:14;;;;;;;;;10.00;3.33;;;;;12.48;76.71;101048.81;4974158;28;45391;-62
2022/12/24 02:59:54;;;;;;;;;10.67;4.00;;;;;12.58;76.68;101059.41;4974197;28;45413;-55
2022/12/24 03:02:35;;;;;;;;;9.67;5.33;;;;;12.58;76.46;101047.91;4975139;28;45285;-63
2022/12/24 03:05:19;;;;;;;;;11.00;3.00;;;;;12.57;77.10;101044.41;4973785;28;45261;-52
2022/12/24 03:08:06;;;;;;;;;13.67;5.00;;;;;12.57;76.62;101036.38;4973766;28;45418;-60
2022/12/24 03:10:50;;;;;;;;;4.33;3.33;;;;;12.57;76.61;101033.72;4973888;28;45538;-59
2022/12/24 03:13:18;;;;;;;;;11.33;4.33;;;;;12.58;76.76;101037.22;4972209;28;48352;-48
2022/12/24 03:15:45;;;;;;;;;14.33;5.00;;;;;12.58;76.83;101034.56;4974099;28;45263;-61
2022/12/24 03:18:15;;;;;;;;;10.00;4.00;;;;;12.60;76.68;101033.41;4973656;28;45377;-61
2022/12/24 03:20:44;;;;;;;;;9.00;8.00;;;;;12.57;76.86;101032.88;4973809;28;45469;-49
2022/12/24 03:23:11;;;;;;;;;10.33;7.00;;;;;12.56;77.09;101032.03;4973754;28;46205;-49
2022/12/24 03:25:40;;;;;;;;;20.33;6.00;;;;;12.56;76.92;101021.38;4974008;28;45495;-48
2022/12/24 03:28:08;;;;;;;;;8.00;3.67;;;;;12.55;76.91;101030.34;4973925;28;45485;-49
2022/12/24 03:30:34;;;;;;;;;9.00;3.67;;;;;12.53;77.08;101016.34;4973943;28;45540;-49
2022/12/24 03:33:00;;;;;;;;;12.33;5.33;;;;;12.52;77.27;101014.66;4973960;28;45915;-57
2022/12/24 03:35:25;;;;;;;;;10.33;6.33;;;;;12.51;77.50;101020.97;4975452;28;45613;-44
2022/12/24 03:37:51;;;;;;;;;9.33;4.33;;;;;12.43;77.42;101004.88;4976566;28;45366;-49
2022/12/24 03:40:17;;;;;;;;;8.00;4.33;;;;;12.52;77.45;101019.16;4975438;28;45446;-60
2022/12/24 03:42:42;;;;;;;;;7.00;4.67;;;;;12.48;77.57;101027.47;4976324;28;45288;-50
2022/12/24 03:45:08;;;;;;;;;7.33;6.33;;;;;12.49;77.79;101028.31;4976353;28;45379;-61
2022/12/24 03:47:33;;;;;;;;;8.33;4.00;;;;;12.49;77.81;101045.16;4976256;28;45497;-60
2022/12/24 03:49:59;;;;;;;;;7.67;4.00;;;;;12.46;78.03;101045.44;4976665;28;45303;-53
2022/12/24 03:52:24;;;;;;;;;6.67;4.00;;;;;12.47;77.36;101059.63;4976277;28;45424;-56
2022/12/24 03:54:49;;;;;;;;;7.67;4.00;;;;;12.47;78.01;101043.59;4976502;28;45517;-61
2022/12/24 03:57:14;;;;;;;;;4.00;4.00;;;;;12.46;77.78;101049.94;4976272;28;45355;-62
2022/12/24 03:59:40;;;;;;;;;14.33;6.00;;;;;12.46;78.02;101041.94;4976348;28;45367;-48
2022/12/24 04:02:05;;;;;;;;;7.00;6.00;;;;;12.43;78.08;101044.91;4975909;28;45999;-50
2022/12/24 04:04:32;;;;;;;;;14.00;4.67;;;;;12.45;77.94;101043.78;4975896;28;45248;-47
2022/12/24 04:06:57;;;;;;;;;9.33;4.33;;;;;12.46;77.90;101055.28;4975947;28;45448;-59
2022/12/24 04:09:23;;;;;;;;;7.67;3.00;;;;;12.43;78.36;101051.09;4976113;28;45416;-50
2022/12/24 04:11:48;;;;;;;;;9.00;4.00;;;;;12.45;78.16;101061.63;4977758;27;47913;-60
2022/12/24 04:14:13;;;;;;;;;10.00;6.00;;;;;12.42;77.78;101061.91;4975392;28;50344;-57
2022/12/24 04:16:39;;;;;;;;;8.67;4.67;;;;;12.43;77.86;101068.91;4975959;28;45462;-59
2022/12/24 04:19:04;;;;;;;;;8.67;2.33;;;;;12.44;78.23;101068.78;4976010;28;45390;-60
2022/12/24 04:21:29;;;;;;;;;12.33;5.67;;;;;12.43;78.50;101072.44;4975531;28;47766;-56
2022/12/24 04:23:54;;;;;;;;;6.00;6.00;;;;;12.42;78.17;101075.25;4975878;28;47720;-56
2022/12/24 04:26:20;;;;;;;;;9.67;4.00;;;;;12.43;78.19;101076.91;4975758;28;45616;-47
2022/12/24 04:28:45;;;;;;;;;7.33;6.00;;;;;12.40;78.23;101078.06;4978079;28;45242;-60
2022/12/24 04:31:15;;;;;;;;;15.33;7.67;;;;;12.37;78.51;101077.53;4975785;28;45389;-47
2022/12/24 04:33:40;;;;;;;;;12.00;7.00;;;;;12.39;78.24;101080.91;4975384;28;45639;-54
2022/12/24 04:36:07;;;;;;;;;11.00;4.00;;;;;12.38;78.13;101084.53;4975816;28;45271;-52
2022/12/24 04:38:33;;;;;;;;;13.00;8.00;;;;;12.35;78.71;101090.19;4975614;28;45573;-49
2022/12/24 04:41:10;;;;;;;;;11.33;3.33;;;;;12.38;78.41;101101.38;4975482;28;45425;-59
2022/12/24 04:43:36;;;;;;;;;15.33;6.33;;;;;12.40;78.63;101087.91;4975432;28;45417;-52
2022/12/24 04:46:17;;;;;;;;;13.00;7.00;;;;;12.39;77.94;101088.91;4974709;28;45303;-59
2022/12/24 04:48:43;;;;;;;;;5.00;4.67;;;;;12.38;78.12;101098.72;4975468;28;45384;-61
2022/12/24 04:51:10;;;;;;;;;8.67;5.33;;;;;12.29;78.18;101085.44;4975357;28;47196;-59
2022/12/24 04:53:36;;;;;;;;;9.00;3.00;;;;;12.36;78.14;101094.53;4975361;28;45291;-62
2022/12/24 04:56:02;;;;;;;;;9.67;6.00;;;;;12.36;78.35;101098.03;4975350;28;45315;-55
2022/12/24 04:58:28;;;;;;;;;12.00;4.00;;;;;12.36;78.75;101108.72;4975565;28;45311;-48
2022/12/24 05:00:54;;;;;;;;;3.00;1.00;;;;;12.35;78.89;101091.03;4975395;28;45433;-49
2022/12/24 05:03:20;;;;;;;;;10.00;3.67;;;;;12.35;78.21;101098.19;4975407;28;45407;-61
2022/12/24 05:05:46;;;;;;;;;12.33;7.00;;;;;12.31;78.88;101099.50;4975342;28;45516;-48
2022/12/24 05:08:11;;;;;;;;;12.00;6.33;;;;;12.33;78.36;101111.66;4976800;28;45496;-48
2022/12/24 05:10:37;;;;;;;;;10.00;6.33;;;;;12.32;78.61;101103.81;4990152;28;48092;-46
2022/12/24 05:13:02;;;;;;;;;18.67;6.33;;;;;12.29;79.01;101098.78;4975029;28;45253;-60
2022/12/24 05:15:28;;;;;;;;;7.00;7.00;;;;;12.29;79.08;101096.94;4975266;28;45318;-50
2022/12/24 05:17:53;;;;;;;;;13.67;6.00;;;;;12.28;78.87;101102.44;4975659;28;45300;-47
2022/12/24 05:20:18;;;;;;;;;8.00;4.00;;;;;12.28;78.97;101100.63;4974956;28;46887;-48
2022/12/24 05:28:17;;;;;;;;;12.33;9.00;;;;;12.26;79.70;101099.91;4975412;28;45434;-46
2022/12/24 05:30:43;;;;;;;;;6.33;3.00;;;;;12.27;79.40;101095.44;4975065;28;45270;-45
2022/12/24 05:33:08;;;;;;;;;8.33;3.00;;;;;12.25;79.46;101090.22;4975052;28;45490;-46
2022/12/24 05:35:33;;;;;;;;;11.00;6.00;;;;;12.24;80.10;101092.06;4974693;28;45289;-46
2022/12/24 05:37:59;;;;;;;;;9.33;4.00;;;;;12.21;79.87;101083.50;4975259;28;45422;-47
2022/12/24 05:40:24;;;;;;;;;6.67;3.33;;;;;12.21;79.91;101081.69;4974947;28;45989;-46
2022/12/24 05:42:49;;;;;;;;;7.67;4.00;;;;;12.24;80.34;101083.22;4975065;28;45291;-49
2022/12/24 05:45:15;;;;;;;;;13.67;6.00;;;;;12.19;80.11;101065.00;4975172;28;45306;-56
2022/12/24 05:47:41;;;;;;;;;20.67;7.33;;;;;12.25;80.32;101084.91;4976466;28;45615;-50
2022/12/24 05:50:07;;;;;;;;;13.00;6.33;;;;;12.24;80.21;101084.06;4974791;28;45615;-52
2022/12/24 05:52:32;;;;;;;;;6.33;5.33;;;;;12.22;80.42;101080.72;4976317;28;45257;-56
2022/12/24 05:54:57;;;;;;;;;10.00;5.67;;;;;12.18;80.17;101074.00;4974927;28;45484;-58
2022/12/24 05:57:23;;;;;;;;;4.67;3.00;;;;;12.19;80.15;101078.34;4973748;28;45221;-49
2022/12/24 05:59:48;;;;;;;;;8.00;7.33;;;;;12.18;80.72;101068.66;4974503;28;46131;-49
2022/12/24 06:02:13;;;;;;;;;13.00;6.33;;;;;12.19;80.63;101073.00;4974532;28;45410;-47
2022/12/24 06:04:39;;;;;;;;;6.00;4.00;;;;;12.19;80.61;101069.50;4974586;28;45612;-53
2022/12/24 06:07:04;;;;;;;;;11.33;6.67;;;;;12.21;81.03;101078.19;4976508;28;45510;-60
2022/12/24 06:09:29;;;;;;;;;9.00;6.00;;;;;12.22;80.67;101074.56;4974451;28;46020;-58
2022/12/24 06:11:55;;;;;;;;;9.67;6.33;;;;;12.21;81.12;101063.00;4974477;28;45358;-47
2022/12/24 06:14:20;;;;;;;;;8.00;2.00;;;;;12.20;81.00;101068.50;4974659;28;45612;-49
2022/12/24 06:16:45;;;;;;;;;6.33;4.00;;;;;12.21;80.68;101076.34;4975015;28;45311;-45
2022/12/24 06:19:11;;;;;;;;;7.67;7.67;;;;;12.18;80.80;101062.50;4974144;28;46019;-49
2022/12/24 06:21:36;;;;;;;;;16.00;8.00;;;;;12.21;80.92;101083.50;4974412;28;45413;-47
2022/12/24 06:24:02;;;;;;;;;3.00;3.00;;;;;12.19;80.94;101088.19;4974426;28;45245;-48
2022/12/24 06:26:27;;;;;;;;;15.33;4.00;;;;;12.21;80.51;101088.84;4974682;28;45513;-48
2022/12/24 06:28:52;;;;;;;;;11.00;3.00;;;;;12.19;80.62;101086.34;4974533;28;49618;-52
2022/12/24 06:31:20;;;;;;;;;6.67;3.67;;;;;12.20;80.26;101088.00;4974175;28;45446;-49
2022/12/24 06:33:45;;;;;;;;;3.67;1.67;;;;;12.19;80.05;101080.16;4973390;28;45313;-58
2022/12/24 06:36:23;;;;;;;;;8.67;3.00;;;;;12.18;80.22;101071.34;4974618;28;45284;-48
2022/12/24 06:38:49;;;;;;;;;6.33;3.33;;;;;12.19;80.16;101077.50;4974538;28;45390;-55
2022/12/24 06:41:15;;;;;;;;;6.00;4.00;;;;;12.19;79.79;101069.50;4974417;28;45293;-51
2022/12/24 06:43:45;;;;;;;;;6.67;4.33;;;;;12.19;79.76;101074.84;4974294;28;45194;-57
2022/12/24 06:46:12;;;;;;;;;9.33;3.00;;;;;12.16;79.50;101067.97;4974621;28;45335;-55
2022/12/24 06:48:37;;;;;;;;;7.67;3.00;;;;;12.18;79.37;101065.16;4973866;28;45348;-47
2022/12/24 06:51:02;;;;;;;;;22.33;12.67;;;;;12.18;79.56;101070.50;4973832;28;45538;-50
2022/12/24 06:53:28;;;;;;;;;7.33;6.00;;;;;12.15;79.41;101065.47;4974331;28;45521;-58
2022/12/24 06:56:05;;;;;;;;;5.33;3.00;;;;;12.09;79.61;101063.38;4974412;28;45351;-59
2022/12/24 06:58:32;;;;;;;;;17.33;9.67;;;;;12.17;79.33;101068.78;4973866;28;46285;-59
2022/12/24 07:01:00;;;;;;;;;26.00;17.33;;;;;12.10;78.89;101073.91;4973909;28;45319;-61
2022/12/24 07:03:26;;;;;;;;;5.67;3.00;;;;;12.16;79.30;101080.47;4974037;28;45496;-47
2022/12/24 07:05:52;;;;;;;;;4.67;1.33;;;;;12.06;78.91;101069.03;4974235;28;45349;-61
2022/12/24 07:08:17;;;;;;;;;6.33;3.33;;;;;12.14;78.23;101087.78;4973747;28;45317;-60
2022/12/24 07:10:43;;;;;;;;;3.33;3.33;;;;;12.10;78.89;101073.06;4977415;28;45386;-47
2022/12/24 07:13:08;;;;;;;;;6.33;1.67;;;;;12.09;78.97;101074.88;4976909;28;45448;-61
2022/12/24 07:15:33;;;;;;;;;3.00;3.00;;;;;12.13;78.50;101091.41;4977590;28;45446;-46
2022/12/24 07:17:59;;;;;;;;;3.00;2.00;;;;;12.09;78.53;101084.69;4977063;28;47194;-62
2022/12/24 07:20:24;;;;;;;;;3.33;2.00;;;;;12.08;78.26;101097.19;4975666;28;45297;-49
2022/12/24 07:22:49;;;;;;;;;3.00;1.67;;;;;12.03;78.28;101104.81;4976341;28;45412;-61
2022/12/24 07:25:15;;;;;;;;;5.67;2.00;;;;;12.01;78.38;101100.59;4977874;27;45462;-51
2022/12/24 07:27:40;;;;;;;;;8.00;3.33;;;;;12.03;78.58;101107.47;4975873;28;46692;-61
2022/12/24 07:30:06;;;;;;;;;21.67;13.67;;;;;12.03;78.11;101106.63;4974094;28;45240;-51
2022/12/24 07:32:32;;;;;;;;;2.67;2.00;;;;;12.02;78.62;101104.97;4973457;28;45288;-47
2022/12/24 07:34:57;;;;;;;;;2.00;1.00;;;;;12.02;78.01;101095.13;4973517;28;46182;-48
2022/12/24 07:37:22;;;;;;;;;1.67;1.33;;;;;12.03;77.99;101095.97;4973183;28;51764;-50
2022/12/24 07:39:48;;;;;;;;;1.00;1.00;;;;;12.04;77.92;101113.63;4973220;28;45438;-57
2022/12/24 07:42:13;;;;;;;;;0.33;0.00;;;;;12.03;78.19;101109.31;4973550;28;45373;-58
2022/12/24 07:44:38;;;;;;;;;4.33;2.00;;;;;12.03;78.12;101117.31;4973546;28;45508;-61
2022/12/24 07:47:04;;;;;;;;;3.33;1.33;;;;;12.09;77.80;101119.38;4973090;28;45418;-60
2022/12/24 07:49:29;;;;;;;;;3.33;1.00;;;;;12.12;78.17;101119.09;4971802;28;45642;-47
2022/12/24 07:51:54;;;;;;;;;4.67;1.00;;;;;12.09;77.33;101117.53;4973267;28;45410;-49
2022/12/24 07:54:20;;;;;;;;;6.33;2.33;;;;;12.13;77.86;101126.91;4973605;28;45360;-50
2022/12/24 07:56:45;;;;;;;;;3.67;2.00;;;;;12.15;77.35;101124.13;4973192;28;46226;-48
2022/12/24 07:59:14;;;;;;;;;11.00;4.00;;;;;12.15;77.34;101122.28;4972958;28;45322;-47
2022/12/24 08:01:39;;;;;;;;;2.67;1.00;;;;;12.13;77.29;101108.25;4975159;27;45424;-55
2022/12/24 08:04:05;;;;;;;;;4.00;2.67;;;;;12.16;77.38;101112.47;4973349;28;45412;-50
2022/12/24 08:06:30;;;;;;;;;2.33;0.33;;;;;12.18;77.60;101131.84;4972754;28;46160;-56
2022/12/24 08:08:56;;;;;;;;;2.33;1.00;;;;;12.10;76.79;101110.41;4973163;28;45305;-56
2022/12/24 08:11:21;;;;;;;;;2.33;0.67;;;;;12.19;76.68;101122.84;4973025;28;45250;-47
2022/12/24 08:13:46;;;;;;;;;3.00;1.33;;;;;12.14;76.96;101112.63;4973103;28;45362;-57
2022/12/24 08:16:12;;;;;;;;;3.00;1.00;;;;;12.21;76.89;101134.19;4972719;28;46167;-52
2022/12/24 08:18:37;;;;;;;;;3.00;2.00;;;;;12.23;76.68;101140.22;4972705;28;45371;-51
2022/12/24 08:21:06;;;;;;;;;3.00;1.00;;;;;12.24;76.47;101131.25;4974852;28;45410;-59
2022/12/24 08:23:32;;;;;;;;;3.00;1.00;;;;;12.22;77.12;101136.72;4976300;28;45332;-53
2022/12/24 08:25:57;;;;;;;;;2.00;0.00;;;;;12.23;76.38;101137.56;4976441;28;46323;-55
2022/12/24 08:28:22;;;;;;;;;4.67;3.00;;;;;12.22;76.73;101147.41;4976470;28;45373;-60
2022/12/24 08:30:49;;;;;;;;;5.67;3.00;;;;;12.20;76.53;101138.69;4976236;28;45534;-54
2022/12/24 08:33:15;;;;;;;;;2.00;0.33;;;;;12.23;76.27;101146.41;4976280;28;45277;-55
2022/12/24 08:35:40;;;;;;;;;3.00;3.00;;;;;12.26;76.98;101163.91;4975482;28;46129;-58
2022/12/24 08:38:05;;;;;;;;;7.00;1.33;;;;;12.24;76.71;101166.75;4975594;28;50135;-56
2022/12/24 08:40:31;;;;;;;;;2.00;2.00;;;;;12.24;76.67;101171.25;4975933;28;45307;-54
2022/12/24 08:42:56;;;;;;;;;4.00;2.00;;;;;12.24;76.52;101171.25;4976112;28;45388;-47
2022/12/24 08:45:21;;;;;;;;;6.33;2.00;;;;;12.15;76.52;101164.97;4975701;28;46334;-50
2022/12/24 08:47:47;;;;;;;;;4.00;1.00;;;;;12.27;76.63;101178.13;4975219;28;45489;-49
2022/12/24 08:50:12;;;;;;;;;3.00;1.00;;;;;12.28;76.29;101175.31;4975853;28;45753;-53
2022/12/24 08:52:38;;;;;;;;;2.67;0.33;;;;;12.22;76.78;101170.56;4975836;28;45339;-50
2022/12/24 08:55:04;;;;;;;;;3.00;2.33;;;;;12.24;76.87;101181.91;4975456;28;46130;-55
2022/12/24 08:57:29;;;;;;;;;2.00;1.00;;;;;12.24;76.51;101185.41;4975582;28;45479;-57
2022/12/24 08:59:55;;;;;;;;;5.00;2.33;;;;;12.24;76.55;101190.75;4975550;28;45383;-52
2022/12/24 09:02:20;;;;;;;;;3.00;0.33;;;;;12.25;76.53;101196.94;4976037;28;45398;-48
2022/12/24 09:04:45;;;;;;;;;9.67;1.33;;;;;12.22;76.69;101207.91;4976928;28;45916;-55
2022/12/24 09:07:11;;;;;;;;;4.67;1.00;;;;;12.22;76.71;101211.41;4975251;28;45397;-49
2022/12/24 09:09:37;;;;;;;;;2.00;1.00;;;;;12.22;76.54;101227.41;4975661;28;45303;-57
2022/12/24 09:12:04;;;;;;;;;3.67;2.00;;;;;12.21;76.54;101211.53;4975600;28;45223;-51
2022/12/24 09:14:29;;;;;;;;;7.00;2.33;;;;;12.13;76.14;101206.94;4975380;28;45391;-50
2022/12/24 09:16:55;;;;;;;;;2.00;2.00;;;;;12.24;76.53;101228.09;4975411;28;45327;-56
2022/12/24 09:19:20;;;;;;;;;3.00;1.67;;;;;12.24;76.36;101222.75;4975446;28;45225;-61
2022/12/24 09:21:46;;;;;;;;;1.67;1.67;;;;;12.24;76.77;101229.94;4975585;28;45481;-51
2022/12/24 09:24:11;;;;;;;;;1.00;1.00;;;;;12.18;76.48;101219.84;4974968;28;48071;-55
2022/12/24 09:26:36;;;;;;;;;3.33;1.33;;;;;12.11;76.91;101219.59;4973979;28;45351;-59
2022/12/24 09:29:02;;;;;;;;;5.00;1.00;;;;;12.21;76.70;101238.22;4975203;28;45453;-59
2022/12/24 09:31:27;;;;;;;;;3.67;3.00;;;;;12.26;76.42;101245.78;4974827;28;45351;-56
2022/12/24 09:33:53;;;;;;;;;2.67;2.67;;;;;12.26;76.63;101243.94;4975141;28;45372;-58
2022/12/24 09:36:20;;;;;;;;;3.00;1.00;;;;;12.28;76.53;101247.31;4974810;28;45356;-51
2022/12/24 09:38:45;;;;;;;;;4.00;2.00;;;;;12.29;76.73;101257.00;4975144;28;45323;-59
2022/12/24 09:41:40;;;;;;;;;5.33;1.00;;;;;12.26;76.69;101254.63;4975552;28;45489;-62
2022/12/24 09:44:14;;;;;;;;;2.00;1.00;;;;;12.24;76.42;101248.59;4975067;28;45633;-49
2022/12/24 09:46:44;;;;;;;;;3.67;1.00;;;;;12.24;76.65;101254.78;4975029;28;45413;-49
2022/12/24 09:49:16;;;;;;;;;3.00;1.00;;;;;12.23;76.40;101252.25;4974842;28;45324;-54
2022/12/24 09:51:48;;;;;;;;;3.00;3.00;;;;;12.20;76.64;101247.22;4975179;28;45442;-48
2022/12/24 09:54:31;;;;;;;;;3.00;3.00;;;;;12.23;76.65;101249.59;4974676;28;46085;-58
2022/12/24 09:57:05;;;;;;;;;3.00;1.00;;;;;12.27;76.76;101237.66;4974740;28;45373;-51
2022/12/24 09:59:43;;;;;;;;;4.00;2.00;;;;;12.32;76.72;101245.22;4974588;28;45477;-46
2022/12/24 10:02:12;;;;;;;;;3.33;1.00;;;;;12.34;76.68;101244.06;4976424;28;45600;-45
2022/12/24 10:04:38;;;;;;;;;2.67;1.00;;;;;12.34;76.70;101229.88;4974540;28;46553;-46
2022/12/24 10:07:33;;;;;;;;;2.00;1.67;;;;;12.38;76.79;101244.63;4974327;28;45215;-59
2022/12/24 10:10:29;;;;;;;;;3.00;1.00;;;;;12.40;76.60;101248.00;4974656;28;45299;-47
2022/12/24 10:13:22;;;;;;;;;4.00;1.00;;;;;12.29;76.76;101225.00;4974881;28;45310;-49
2022/12/24 10:16:32;;;;;;;;;6.00;2.00;;;;;12.37;77.26;101235.78;4974629;28;45422;-47
2022/12/24 10:19:20;;;;;;;;;3.67;3.33;;;;;12.40;76.74;101248.00;4974159;28;45328;-46
2022/12/24 10:22:13;;;;;;;;;7.00;3.00;;;;;12.43;76.57;101242.34;4974686;28;45286;-50
2022/12/24 10:24:48;;;;;;;;;6.33;2.00;;;;;12.43;77.09;101245.00;4973326;28;45283;-48
2022/12/24 10:27:16;;;;;;;;;2.00;2.00;;;;;12.41;76.77;101244.34;4975423;28;45454;-49
2022/12/24 10:29:49;;;;;;;;;2.67;1.00;;;;;12.43;76.61;101245.88;4974053;28;45328;-49
2022/12/24 10:32:27;;;;;;;;;2.33;1.67;;;;;12.45;76.82;101246.56;4974265;28;45407;-53
2022/12/24 10:34:59;;;;;;;;;3.00;2.00;;;;;12.45;76.62;101251.91;4974697;28;45338;-50
2022/12/24 10:37:27;;;;;;;;;1.00;1.00;;;;;12.43;77.29;101250.34;4973962;28;46994;-47
2022/12/24 10:39:54;;;;;;;;;3.00;2.00;;;;;12.48;77.03;101256.94;4974234;28;45458;-50
2022/12/24 10:42:22;;;;;;;;;6.67;1.67;;;;;12.51;76.92;101250.47;4973812;28;45340;-54
2022/12/24 10:44:56;;;;;;;;;2.67;1.67;;;;;12.48;76.89;101237.44;4974203;28;45478;-51
2022/12/24 10:47:23;;;;;;;;;2.67;2.00;;;;;12.44;76.63;101230.72;4973870;28;47192;-50
2022/12/24 10:50:09;;;;;;;;;1.00;1.00;;;;;12.48;76.61;101235.59;4974101;28;45429;-56
2022/12/24 10:52:39;;;;;;;;;6.00;2.00;;;;;12.53;76.76;101234.31;4974141;28;45418;-56
2022/12/24 10:55:16;;;;;;;;;3.00;1.33;;;;;12.61;77.06;101245.94;4974574;28;45380;-59
2022/12/24 10:57:43;;;;;;;;;3.00;2.00;;;;;12.60;76.70;101230.03;4973982;28;46222;-49
2022/12/24 11:00:23;;;;;;;;;4.00;2.00;;;;;12.71;76.60;101244.03;4973957;28;45314;-47
2022/12/24 11:03:04;;;;;;;;;7.67;2.00;;;;;12.74;75.95;101235.75;4974020;28;45318;-50
2022/12/24 11:05:32;;;;;;;;;5.33;2.67;;;;;12.77;76.41;101239.09;4972808;28;45358;-55
2022/12/24 11:08:02;;;;;;;;;3.00;2.00;;;;;12.78;75.76;101230.97;4973851;28;45341;-58
2022/12/24 11:10:27;;;;;;;;;3.00;3.00;;;;;12.81;75.89;101225.31;4973969;28;45406;-60
2022/12/24 11:12:53;;;;;;;;;5.33;2.00;;;;;12.83;76.19;101217.16;4974100;28;45483;-60
2022/12/24 11:15:23;;;;;;;;;1.67;0.33;;;;;12.85;76.09;101224.03;4974210;28;45502;-57
2022/12/24 11:17:58;;;;;;;;;2.33;2.00;;;;;12.87;75.85;101219.38;4973791;28;46993;-59
2022/12/24 11:20:27;;;;;;;;;5.67;1.67;;;;;12.90;75.79;101220.91;4974090;28;45407;-60
2022/12/24 11:22:53;;;;;;;;;7.67;2.00;;;;;12.91;75.19;101222.59;4974136;28;45529;-60
2022/12/24 11:25:21;;;;;;;;;4.00;2.00;;;;;12.89;76.00;101220.09;4973909;28;45410;-62
2022/12/24 11:27:50;;;;;;;;;6.33;2.00;;;;;12.92;75.42;101216.25;4973638;28;47028;-56
2022/12/24 11:30:15;;;;;;;;;1.00;1.00;;;;;12.94;75.23;101220.47;4973629;28;45316;-57
2022/12/24 11:32:43;;;;;;;;;4.00;1.00;;;;;12.92;75.47;101210.91;4973448;28;45235;-61
2022/12/24 11:35:23;;;;;;;;;1.00;1.00;;;;;12.94;75.73;101224.97;4973693;28;45458;-57
2022/12/24 11:38:09;;;;;;;;;0.33;0.00;;;;;12.96;75.72;101225.66;4973315;28;47142;-60
2022/12/24 11:40:38;;;;;;;;;3.33;1.67;;;;;12.94;75.34;101211.63;4973131;28;45427;-59